createdAt,value
2017-09-25T00:00:01.997Z,994.95
2017-09-25T00:01:00.193Z,994.99
2017-09-25T00:02:00.194Z,994.96
2017-09-25T00:03:00.189Z,994.96
2017-09-25T00:04:00.187Z,994.98
2017-09-25T00:05:00.189Z,994.99
2017-09-25T00:06:00.190Z,994.97
2017-09-25T00:07:00.181Z,994.98
2017-09-25T00:08:00.181Z,994.99
2017-09-25T00:09:00.176Z,995
2017-09-25T00:10:00.174Z,994.97
2017-09-25T00:11:00.172Z,994.93
2017-09-25T00:12:00.172Z,994.99
2017-09-25T00:13:00.168Z,995.01
2017-09-25T00:14:00.166Z,994.99
2017-09-25T00:15:00.166Z,995.02
2017-09-25T00:16:00.163Z,995.01
2017-09-25T00:17:00.158Z,995.02
2017-09-25T00:18:00.161Z,995.02
2017-09-25T00:19:00.160Z,995.04
2017-09-25T00:20:00.156Z,995.01
2017-09-25T00:21:00.159Z,995
2017-09-25T00:22:00.158Z,995.01
2017-09-25T00:23:00.147Z,994.98
2017-09-25T00:24:00.142Z,995
2017-09-25T00:25:00.141Z,994.99
2017-09-25T00:26:00.141Z,995.01
2017-09-25T00:27:00.136Z,994.99
2017-09-25T00:28:00.134Z,995
2017-09-25T00:29:00.136Z,995.01
2017-09-25T00:30:00.132Z,995
2017-09-25T00:31:00.137Z,995.02
2017-09-25T00:32:00.126Z,994.99
2017-09-25T00:33:00.123Z,994.99
2017-09-25T00:34:00.127Z,994.97
2017-09-25T00:35:00.120Z,995
2017-09-25T00:36:00.117Z,995.01
2017-09-25T00:37:00.115Z,995.02
2017-09-25T00:38:00.111Z,995.03
2017-09-25T00:39:00.110Z,995.03
2017-09-25T00:40:00.109Z,995.03
2017-09-25T00:41:00.105Z,995.01
2017-09-25T00:42:00.103Z,995.03
2017-09-25T00:43:00.100Z,995.01
2017-09-25T00:44:00.099Z,995
2017-09-25T00:45:00.094Z,994.99
2017-09-25T00:46:00.093Z,994.97
2017-09-25T00:47:00.091Z,994.97
2017-09-25T00:48:00.088Z,994.97
2017-09-25T00:49:00.086Z,994.97
2017-09-25T00:50:00.085Z,994.94
2017-09-25T00:51:00.081Z,994.97
2017-09-25T00:52:00.079Z,994.95
2017-09-25T00:53:00.078Z,994.99
2017-09-25T00:54:00.088Z,994.98
2017-09-25T00:55:00.073Z,994.97
2017-09-25T00:56:00.070Z,994.92
2017-09-25T00:57:00.066Z,994.96
2017-09-25T00:58:00.064Z,994.96
2017-09-25T00:59:00.065Z,994.95
2017-09-25T01:00:00.059Z,994.94
2017-09-25T01:01:00.061Z,994.91
2017-09-25T01:02:00.055Z,994.93
2017-09-25T01:03:00.052Z,994.93
2017-09-25T01:04:00.049Z,994.9
2017-09-25T01:05:00.048Z,994.9
2017-09-25T01:06:00.044Z,994.88
2017-09-25T01:07:00.047Z,994.88
2017-09-25T01:08:00.040Z,994.85
2017-09-25T01:09:00.037Z,994.88
2017-09-25T01:10:00.034Z,994.88
2017-09-25T01:11:00.036Z,994.89
2017-09-25T01:12:00.030Z,994.85
2017-09-25T01:13:00.028Z,994.87
2017-09-25T01:14:00.030Z,994.93
2017-09-25T01:15:00.028Z,994.9
2017-09-25T01:16:00.019Z,994.88
2017-09-25T01:17:00.017Z,994.91
2017-09-25T01:18:00.014Z,994.87
2017-09-25T01:19:00.012Z,994.9
2017-09-25T01:20:00.009Z,994.9
2017-09-25T01:21:00.008Z,994.9
2017-09-25T01:22:00.004Z,994.83
2017-09-25T01:23:00.002Z,994.85
2017-09-25T01:23:59.998Z,994.88
2017-09-25T01:25:00.000Z,994.84
2017-09-25T01:25:59.993Z,994.88
2017-09-25T01:26:59.996Z,994.84
2017-09-25T01:27:59.995Z,994.86
2017-09-25T01:28:59.995Z,994.86
2017-09-25T01:29:59.997Z,994.86
2017-09-25T01:30:59.982Z,994.84
2017-09-25T01:31:59.980Z,994.82
2017-09-25T01:32:59.989Z,994.8
2017-09-25T01:33:59.977Z,994.78
2017-09-25T01:34:59.972Z,994.77
2017-09-25T01:35:59.967Z,994.79
2017-09-25T01:36:59.963Z,994.77
2017-09-25T01:37:59.961Z,994.77
2017-09-25T01:38:59.959Z,994.74
2017-09-25T01:39:59.956Z,994.72
2017-09-25T01:40:59.953Z,994.69
2017-09-25T01:41:59.951Z,994.75
2017-09-25T01:42:59.950Z,994.75
2017-09-25T01:43:59.949Z,994.71
2017-09-25T01:44:59.944Z,994.68
2017-09-25T01:45:59.946Z,994.69
2017-09-25T01:46:59.945Z,994.7
2017-09-25T01:47:59.944Z,994.68
2017-09-25T01:48:59.948Z,994.7
2017-09-25T01:49:59.935Z,994.72
2017-09-25T01:50:59.925Z,994.71
2017-09-25T01:51:59.924Z,994.71
2017-09-25T01:52:59.920Z,994.73
2017-09-25T01:53:59.921Z,994.71
2017-09-25T01:54:59.915Z,994.73
2017-09-25T01:55:59.914Z,994.66
2017-09-25T01:56:59.911Z,994.71
2017-09-25T01:57:59.908Z,994.66
2017-09-25T01:58:59.904Z,994.7
2017-09-25T01:59:59.926Z,994.71
2017-09-25T02:00:59.912Z,994.68
2017-09-25T02:01:59.906Z,994.69
2017-09-25T02:02:59.893Z,994.64
2017-09-25T02:03:59.889Z,994.7
2017-09-25T02:04:59.890Z,994.66
2017-09-25T02:05:59.885Z,994.68
2017-09-25T02:06:59.886Z,994.67
2017-09-25T02:07:59.878Z,994.71
2017-09-25T02:08:59.877Z,994.65
2017-09-25T02:09:59.874Z,994.64
2017-09-25T02:10:59.872Z,994.63
2017-09-25T02:11:59.878Z,994.67
2017-09-25T02:12:59.865Z,994.65
2017-09-25T02:13:59.863Z,994.65
2017-09-25T02:14:59.861Z,994.64
2017-09-25T02:15:59.864Z,994.64
2017-09-25T02:16:59.855Z,994.63
2017-09-25T02:17:59.853Z,994.61
2017-09-25T02:18:59.851Z,994.62
2017-09-25T02:19:59.851Z,994.62
2017-09-25T02:20:59.843Z,994.59
2017-09-25T02:21:59.841Z,994.57
2017-09-25T02:22:59.839Z,994.58
2017-09-25T02:23:59.837Z,994.55
2017-09-25T02:24:59.833Z,994.54
2017-09-25T02:25:59.828Z,994.47
2017-09-25T02:26:59.826Z,994.49
2017-09-25T02:27:59.824Z,994.52
2017-09-25T02:28:59.819Z,994.49
2017-09-25T02:29:59.817Z,994.52
2017-09-25T02:30:59.813Z,994.5
2017-09-25T02:31:59.812Z,994.52
2017-09-25T02:32:59.808Z,994.51
2017-09-25T02:33:59.806Z,994.5
2017-09-25T02:34:59.802Z,994.46
2017-09-25T02:35:59.799Z,994.5
2017-09-25T02:36:59.796Z,994.54
2017-09-25T02:37:59.794Z,994.51
2017-09-25T02:38:59.790Z,994.52
2017-09-25T02:39:59.788Z,994.56
2017-09-25T02:40:59.786Z,994.54
2017-09-25T02:41:59.784Z,994.55
2017-09-25T02:42:59.781Z,994.52
2017-09-25T02:43:59.776Z,994.54
2017-09-25T02:44:59.775Z,994.54
2017-09-25T02:45:59.770Z,994.58
2017-09-25T02:47:00.618Z,994.56
2017-09-25T02:47:59.764Z,994.58
2017-09-25T02:48:59.763Z,994.6
2017-09-25T02:49:59.759Z,994.57
2017-09-25T02:50:59.754Z,994.57
2017-09-25T02:51:59.751Z,994.56
2017-09-25T02:52:59.749Z,994.53
2017-09-25T02:53:59.749Z,994.56
2017-09-25T02:54:59.742Z,994.55
2017-09-25T02:55:59.738Z,994.54
2017-09-25T02:56:59.735Z,994.56
2017-09-25T02:57:59.733Z,994.53
2017-09-25T02:58:59.729Z,994.54
2017-09-25T02:59:59.727Z,994.55
2017-09-25T03:00:59.721Z,994.59
2017-09-25T03:01:59.719Z,994.56
2017-09-25T03:02:59.724Z,994.55
2017-09-25T03:03:59.717Z,994.59
2017-09-25T03:04:59.709Z,994.55
2017-09-25T03:05:59.706Z,994.56
2017-09-25T03:06:59.703Z,994.57
2017-09-25T03:07:59.714Z,994.58
2017-09-25T03:08:59.697Z,994.54
2017-09-25T03:09:59.693Z,994.51
2017-09-25T03:10:59.694Z,994.56
2017-09-25T03:11:59.690Z,994.53
2017-09-25T03:12:59.683Z,994.49
2017-09-25T03:13:59.681Z,994.48
2017-09-25T03:14:59.676Z,994.45
2017-09-25T03:15:59.674Z,994.44
2017-09-25T03:16:59.671Z,994.44
2017-09-25T03:17:59.669Z,994.48
2017-09-25T03:18:59.664Z,994.49
2017-09-25T03:19:59.661Z,994.48
2017-09-25T03:20:59.658Z,994.48
2017-09-25T03:21:59.655Z,994.56
2017-09-25T03:22:59.652Z,994.54
2017-09-25T03:23:59.648Z,994.58
2017-09-25T03:24:59.645Z,994.64
2017-09-25T03:25:59.642Z,994.59
2017-09-25T03:26:59.640Z,994.68
2017-09-25T03:27:59.640Z,994.61
2017-09-25T03:28:59.634Z,994.65
2017-09-25T03:29:59.628Z,994.61
2017-09-25T03:30:59.625Z,994.62
2017-09-25T03:31:59.623Z,994.63
2017-09-25T03:32:59.622Z,994.64
2017-09-25T03:33:59.617Z,994.59
2017-09-25T03:34:59.612Z,994.62
2017-09-25T03:35:59.609Z,994.63
2017-09-25T03:36:59.613Z,994.62
2017-09-25T03:37:59.602Z,994.58
2017-09-25T03:38:59.599Z,994.52
2017-09-25T03:39:59.595Z,994.53
2017-09-25T03:40:59.592Z,994.53
2017-09-25T03:41:59.589Z,994.52
2017-09-25T03:42:59.585Z,994.54
2017-09-25T03:43:59.583Z,994.5
2017-09-25T03:44:59.579Z,994.5
2017-09-25T03:45:59.577Z,994.55
2017-09-25T03:46:59.573Z,994.5
2017-09-25T03:47:59.577Z,994.5
2017-09-25T03:48:59.566Z,994.51
2017-09-25T03:49:59.563Z,994.51
2017-09-25T03:50:59.560Z,994.52
2017-09-25T03:51:59.556Z,994.5
2017-09-25T03:52:59.552Z,994.47
2017-09-25T03:53:59.549Z,994.48
2017-09-25T03:54:59.545Z,994.41
2017-09-25T03:55:59.543Z,994.46
2017-09-25T03:56:59.539Z,994.46
2017-09-25T03:57:59.536Z,994.44
2017-09-25T03:58:59.532Z,994.45
2017-09-25T03:59:59.528Z,994.5
2017-09-25T04:00:59.525Z,994.5
2017-09-25T04:01:59.546Z,994.51
2017-09-25T04:03:01.169Z,994.5
2017-09-25T04:03:59.515Z,994.56
2017-09-25T04:04:59.516Z,994.54
2017-09-25T04:05:59.506Z,994.56
2017-09-25T04:06:59.504Z,994.57
2017-09-25T04:07:59.502Z,994.56
2017-09-25T04:08:59.498Z,994.55
2017-09-25T04:09:59.493Z,994.57
2017-09-25T04:10:59.490Z,994.54
2017-09-25T04:11:59.486Z,994.56
2017-09-25T04:12:59.485Z,994.56
2017-09-25T04:13:59.479Z,994.55
2017-09-25T04:14:59.476Z,994.55
2017-09-25T04:15:59.487Z,994.6
2017-09-25T04:16:59.468Z,994.56
2017-09-25T04:17:59.465Z,994.58
2017-09-25T04:18:59.464Z,994.55
2017-09-25T04:19:59.461Z,994.57
2017-09-25T04:20:59.460Z,994.54
2017-09-25T04:21:59.452Z,994.53
2017-09-25T04:22:59.451Z,994.53
2017-09-25T04:23:59.446Z,994.56
2017-09-25T04:24:59.441Z,994.51
2017-09-25T04:25:59.438Z,994.5
2017-09-25T04:26:59.443Z,994.51
2017-09-25T04:27:59.435Z,994.48
2017-09-25T04:28:59.427Z,994.51
2017-09-25T04:29:59.425Z,994.52
2017-09-25T04:30:59.421Z,994.5
2017-09-25T04:31:59.417Z,994.49
2017-09-25T04:32:59.414Z,994.53
2017-09-25T04:33:59.411Z,994.53
2017-09-25T04:34:59.407Z,994.54
2017-09-25T04:35:59.402Z,994.54
2017-09-25T04:36:59.400Z,994.58
2017-09-25T04:37:59.397Z,994.52
2017-09-25T04:38:59.399Z,994.49
2017-09-25T04:39:59.389Z,994.53
2017-09-25T04:40:59.390Z,994.54
2017-09-25T04:41:59.400Z,994.5
2017-09-25T04:42:59.378Z,994.55
2017-09-25T04:43:59.387Z,994.54
2017-09-25T04:44:59.372Z,994.5
2017-09-25T04:45:59.367Z,994.53
2017-09-25T04:46:59.363Z,994.57
2017-09-25T04:47:59.359Z,994.56
2017-09-25T04:48:59.356Z,994.59
2017-09-25T04:49:59.356Z,994.6
2017-09-25T04:50:59.359Z,994.64
2017-09-25T04:51:59.345Z,994.65
2017-09-25T04:52:59.341Z,994.64
2017-09-25T04:53:59.336Z,994.64
2017-09-25T04:54:59.339Z,994.67
2017-09-25T04:55:59.336Z,994.69
2017-09-25T04:56:59.332Z,994.66
2017-09-25T04:57:59.326Z,994.7
2017-09-25T04:58:59.319Z,994.73
2017-09-25T04:59:59.315Z,994.66
2017-09-25T05:00:59.311Z,994.65
2017-09-25T05:01:59.307Z,994.66
2017-09-25T05:02:59.322Z,994.62
2017-09-25T05:04:02.553Z,994.66
2017-09-25T05:04:59.295Z,994.63
2017-09-25T05:05:59.298Z,994.66
2017-09-25T05:06:59.288Z,994.66
2017-09-25T05:07:59.285Z,994.63
2017-09-25T05:08:59.285Z,994.65
2017-09-25T05:09:59.277Z,994.66
2017-09-25T05:10:59.271Z,994.65
2017-09-25T05:11:59.269Z,994.64
2017-09-25T05:12:59.264Z,994.59
2017-09-25T05:13:59.259Z,994.61
2017-09-25T05:14:59.256Z,994.62
2017-09-25T05:15:59.250Z,994.55
2017-09-25T05:16:59.254Z,994.58
2017-09-25T05:17:59.254Z,994.55
2017-09-25T05:18:59.240Z,994.49
2017-09-25T05:19:59.236Z,994.55
2017-09-25T05:20:59.233Z,994.58
2017-09-25T05:21:59.232Z,994.57
2017-09-25T05:22:59.224Z,994.53
2017-09-25T05:23:59.221Z,994.57
2017-09-25T05:24:59.217Z,994.56
2017-09-25T05:25:59.216Z,994.62
2017-09-25T05:26:59.209Z,994.59
2017-09-25T05:27:59.206Z,994.55
2017-09-25T05:28:59.201Z,994.61
2017-09-25T05:29:59.204Z,994.57
2017-09-25T05:30:59.202Z,994.6
2017-09-25T05:31:59.207Z,994.61
2017-09-25T05:32:59.190Z,994.59
2017-09-25T05:33:59.182Z,994.64
2017-09-25T05:34:59.178Z,994.67
2017-09-25T05:35:59.175Z,994.67
2017-09-25T05:36:59.172Z,994.68
2017-09-25T05:37:59.168Z,994.66
2017-09-25T05:38:59.164Z,994.63
2017-09-25T05:39:59.163Z,994.66
2017-09-25T05:40:59.156Z,994.7
2017-09-25T05:41:59.153Z,994.71
2017-09-25T05:42:59.154Z,994.71
2017-09-25T05:43:59.146Z,994.7
2017-09-25T05:44:59.141Z,994.73
2017-09-25T05:45:59.140Z,994.74
2017-09-25T05:46:59.135Z,994.73
2017-09-25T05:47:59.131Z,994.75
2017-09-25T05:48:59.127Z,994.7
2017-09-25T05:49:59.125Z,994.78
2017-09-25T05:50:59.121Z,994.72
2017-09-25T05:51:59.116Z,994.73
2017-09-25T05:52:59.116Z,994.83
2017-09-25T05:53:59.110Z,994.82
2017-09-25T05:54:59.106Z,994.82
2017-09-25T05:55:59.100Z,994.83
2017-09-25T05:56:59.096Z,994.86
2017-09-25T05:57:59.092Z,994.86
2017-09-25T05:58:59.088Z,994.87
2017-09-25T05:59:59.083Z,994.86
2017-09-25T06:00:59.079Z,994.88
2017-09-25T06:01:59.076Z,994.92
2017-09-25T06:02:59.072Z,994.89
2017-09-25T06:03:59.066Z,994.91
2017-09-25T06:04:59.061Z,994.91
2017-09-25T06:05:59.059Z,994.85
2017-09-25T06:06:59.055Z,994.91
2017-09-25T06:07:59.050Z,994.93
2017-09-25T06:08:59.046Z,994.9
2017-09-25T06:09:59.044Z,994.95
2017-09-25T06:10:59.039Z,994.95
2017-09-25T06:11:59.035Z,995.01
2017-09-25T06:12:59.033Z,995.03
2017-09-25T06:13:59.026Z,995.07
2017-09-25T06:14:59.023Z,995.06
2017-09-25T06:15:59.026Z,995.08
2017-09-25T06:16:59.015Z,995.09
2017-09-25T06:17:59.012Z,995.13
2017-09-25T06:18:59.010Z,995.13
2017-09-25T06:19:59.005Z,995.11
2017-09-25T06:20:59.009Z,995.1
2017-09-25T06:21:59.005Z,995.07
2017-09-25T06:22:58.994Z,995.07
2017-09-25T06:23:58.996Z,995.08
2017-09-25T06:24:58.993Z,995.09
2017-09-25T06:25:58.991Z,995.05
2017-09-25T06:26:58.993Z,995.05
2017-09-25T06:27:58.990Z,995.03
2017-09-25T06:28:58.973Z,995.01
2017-09-25T06:29:58.968Z,995.03
2017-09-25T06:30:58.972Z,995.04
2017-09-25T06:31:58.966Z,995.06
2017-09-25T06:32:58.963Z,995.02
2017-09-25T06:33:58.957Z,995.02
2017-09-25T06:34:58.955Z,995.01
2017-09-25T06:35:58.952Z,994.99
2017-09-25T06:36:58.955Z,995
2017-09-25T06:37:58.951Z,995
2017-09-25T06:38:58.945Z,994.97
2017-09-25T06:39:58.940Z,994.96
2017-09-25T06:40:58.941Z,994.98
2017-09-25T06:41:58.935Z,994.93
2017-09-25T06:42:58.934Z,994.88
2017-09-25T06:43:58.939Z,994.89
2017-09-25T06:44:58.942Z,994.86
2017-09-25T06:45:58.938Z,994.92
2017-09-25T06:46:58.924Z,994.88
2017-09-25T06:47:58.919Z,994.9
2017-09-25T06:48:58.916Z,994.89
2017-09-25T06:49:58.917Z,994.92
2017-09-25T06:50:58.912Z,994.91
2017-09-25T06:51:58.917Z,994.9
2017-09-25T06:52:58.906Z,994.89
2017-09-25T06:53:58.905Z,994.88
2017-09-25T06:54:58.905Z,994.83
2017-09-25T06:55:58.899Z,994.84
2017-09-25T06:56:58.900Z,994.81
2017-09-25T06:57:58.903Z,994.83
2017-09-25T06:58:58.939Z,994.85
2017-09-25T06:59:58.894Z,994.88
2017-09-25T07:00:58.891Z,994.84
2017-09-25T07:01:58.892Z,994.85
2017-09-25T07:02:58.884Z,994.82
2017-09-25T07:03:58.882Z,994.82
2017-09-25T07:04:58.883Z,994.78
2017-09-25T07:05:58.877Z,994.8
2017-09-25T07:06:58.876Z,994.79
2017-09-25T07:07:58.882Z,994.75
2017-09-25T07:08:58.870Z,994.77
2017-09-25T07:09:58.869Z,994.76
2017-09-25T07:10:58.870Z,994.75
2017-09-25T07:11:58.865Z,994.79
2017-09-25T07:12:58.861Z,994.8
2017-09-25T07:13:58.869Z,994.8
2017-09-25T07:14:58.859Z,994.83
2017-09-25T07:15:58.856Z,994.81
2017-09-25T07:16:58.854Z,994.85
2017-09-25T07:17:58.857Z,994.85
2017-09-25T07:18:58.852Z,994.81
2017-09-25T07:19:58.851Z,994.84
2017-09-25T07:20:58.848Z,994.79
2017-09-25T07:21:58.854Z,994.8
2017-09-25T07:22:58.847Z,994.77
2017-09-25T07:23:58.843Z,994.79
2017-09-25T07:24:58.845Z,994.77
2017-09-25T07:25:58.842Z,994.79
2017-09-25T07:26:58.846Z,994.83
2017-09-25T07:27:58.846Z,994.78
2017-09-25T07:28:58.843Z,994.82
2017-09-25T07:29:58.837Z,994.86
2017-09-25T07:30:58.835Z,994.84
2017-09-25T07:31:58.832Z,994.8
2017-09-25T07:32:58.831Z,994.86
2017-09-25T07:33:58.830Z,994.8
2017-09-25T07:34:59.128Z,994.85
2017-09-25T07:35:58.827Z,994.85
2017-09-25T07:36:58.838Z,994.88
2017-09-25T07:37:58.827Z,994.88
2017-09-25T07:38:58.825Z,994.87
2017-09-25T07:39:58.823Z,994.87
2017-09-25T07:40:58.820Z,994.85
2017-09-25T07:41:58.819Z,994.83
2017-09-25T07:42:58.819Z,994.84
2017-09-25T07:43:58.819Z,994.82
2017-09-25T07:44:58.816Z,994.82
2017-09-25T07:45:58.814Z,994.86
2017-09-25T07:46:58.814Z,994.86
2017-09-25T07:47:58.817Z,994.82
2017-09-25T07:48:58.811Z,994.82
2017-09-25T07:50:03.917Z,994.8
2017-09-25T07:50:58.807Z,994.8
2017-09-25T07:51:58.817Z,994.78
2017-09-25T07:52:58.808Z,994.73
2017-09-25T07:53:58.805Z,994.76
2017-09-25T07:54:58.832Z,994.74
2017-09-25T07:55:58.806Z,994.77
2017-09-25T07:56:58.803Z,994.67
2017-09-25T07:57:58.803Z,994.68
2017-09-25T07:58:58.803Z,994.62
2017-09-25T07:59:58.822Z,994.64
2017-09-25T08:00:58.800Z,994.64
2017-09-25T08:01:58.799Z,994.67
2017-09-25T08:02:58.800Z,994.67
2017-09-25T08:03:58.797Z,994.68
2017-09-25T08:04:58.795Z,994.69
2017-09-25T08:05:58.795Z,994.75
2017-09-25T08:06:58.795Z,994.66
2017-09-25T08:07:58.794Z,994.71
2017-09-25T08:08:58.790Z,994.72
2017-09-25T08:09:58.791Z,994.7
2017-09-25T08:10:58.789Z,994.69
2017-09-25T08:11:58.788Z,994.69
2017-09-25T08:12:58.788Z,994.69
2017-09-25T08:13:58.793Z,994.66
2017-09-25T08:14:58.785Z,994.65
2017-09-25T08:15:58.787Z,994.64
2017-09-25T08:16:58.786Z,994.67
2017-09-25T08:17:58.786Z,994.66
2017-09-25T08:18:58.785Z,994.65
2017-09-25T08:19:58.784Z,994.63
2017-09-25T08:20:58.786Z,994.66
2017-09-25T08:21:58.789Z,994.64
2017-09-25T08:22:58.790Z,994.63
2017-09-25T08:23:58.785Z,994.57
2017-09-25T08:24:58.784Z,994.58
2017-09-25T08:25:58.783Z,994.54
2017-09-25T08:26:58.784Z,994.56
2017-09-25T08:27:58.787Z,994.51
2017-09-25T08:28:58.784Z,994.51
2017-09-25T08:29:58.783Z,994.47
2017-09-25T08:30:58.787Z,994.54
2017-09-25T08:31:58.785Z,994.47
2017-09-25T08:32:58.783Z,994.48
2017-09-25T08:33:58.782Z,994.47
2017-09-25T08:34:58.783Z,994.48
2017-09-25T08:35:58.786Z,994.42
2017-09-25T08:36:58.782Z,994.43
2017-09-25T08:37:58.781Z,994.44
2017-09-25T08:38:58.783Z,994.45
2017-09-25T08:39:58.781Z,994.43
2017-09-25T08:40:58.781Z,994.47
2017-09-25T08:41:58.782Z,994.39
2017-09-25T08:42:58.781Z,994.46
2017-09-25T08:43:58.780Z,994.45
2017-09-25T08:44:58.781Z,994.45
2017-09-25T08:45:58.782Z,994.42
2017-09-25T08:46:58.780Z,994.39
2017-09-25T08:47:58.779Z,994.45
2017-09-25T08:48:58.779Z,994.42
2017-09-25T08:49:58.789Z,994.4
2017-09-25T08:50:58.829Z,994.37
2017-09-25T08:51:58.779Z,994.35
2017-09-25T08:52:58.783Z,994.36
2017-09-25T08:53:58.778Z,994.33
2017-09-25T08:54:58.780Z,994.34
2017-09-25T08:55:58.778Z,994.29
2017-09-25T08:56:58.778Z,994.25
2017-09-25T08:57:58.778Z,994.27
2017-09-25T08:58:58.778Z,994.23
2017-09-25T08:59:58.779Z,994.22
2017-09-25T09:00:58.778Z,994.23
2017-09-25T09:01:58.777Z,994.19
2017-09-25T09:02:58.778Z,994.21
2017-09-25T09:03:58.781Z,994.17
2017-09-25T09:04:58.779Z,994.22
2017-09-25T09:05:59.228Z,994.19
2017-09-25T09:06:58.780Z,994.15
2017-09-25T09:07:58.779Z,994.15
2017-09-25T09:08:58.779Z,994.14
2017-09-25T09:09:58.779Z,994.13
2017-09-25T09:10:58.780Z,994.13
2017-09-25T09:11:58.780Z,994.09
2017-09-25T09:12:58.781Z,994.08
2017-09-25T09:13:58.883Z,994.12
2017-09-25T09:14:58.843Z,994.1
2017-09-25T09:15:58.782Z,994.05
2017-09-25T09:16:58.785Z,994.04
2017-09-25T09:17:58.785Z,994.07
2017-09-25T09:18:58.789Z,994.02
2017-09-25T09:19:58.785Z,994.09
2017-09-25T09:20:59.888Z,994.03
2017-09-25T09:21:58.788Z,994.03
2017-09-25T09:22:58.787Z,993.98
2017-09-25T09:23:58.788Z,994.01
2017-09-25T09:24:58.789Z,994.01
2017-09-25T09:25:58.789Z,993.98
2017-09-25T09:26:58.801Z,993.94
2017-09-25T09:27:58.790Z,993.91
2017-09-25T09:28:58.790Z,993.9
2017-09-25T09:29:58.792Z,993.88
2017-09-25T09:30:58.792Z,993.91
2017-09-25T09:31:58.791Z,993.85
2017-09-25T09:32:58.796Z,993.89
2017-09-25T09:33:58.797Z,993.83
2017-09-25T09:34:58.808Z,993.82
2017-09-25T09:35:58.794Z,993.8
2017-09-25T09:36:58.794Z,993.76
2017-09-25T09:37:58.798Z,993.78
2017-09-25T09:38:58.801Z,993.73
2017-09-25T09:39:58.795Z,993.71
2017-09-25T09:40:58.801Z,993.71
2017-09-25T09:41:58.804Z,993.75
2017-09-25T09:42:58.802Z,993.73
2017-09-25T09:43:58.805Z,993.69
2017-09-25T09:44:58.803Z,993.7
2017-09-25T09:45:58.801Z,993.68
2017-09-25T09:46:58.802Z,993.71
2017-09-25T09:47:58.803Z,993.67
2017-09-25T09:48:58.809Z,993.69
2017-09-25T09:49:58.804Z,993.66
2017-09-25T09:50:58.806Z,993.62
2017-09-25T09:51:58.806Z,993.68
2017-09-25T09:52:58.812Z,993.65
2017-09-25T09:53:58.812Z,993.67
2017-09-25T09:54:58.811Z,993.64
2017-09-25T09:55:58.811Z,993.67
2017-09-25T09:56:58.814Z,993.68
2017-09-25T09:57:58.813Z,993.67
2017-09-25T09:58:58.815Z,993.65
2017-09-25T09:59:58.817Z,993.67
2017-09-25T10:00:58.817Z,993.64
2017-09-25T10:01:58.819Z,993.61
2017-09-25T10:02:58.820Z,993.66
2017-09-25T10:03:58.821Z,993.64
2017-09-25T10:04:58.822Z,993.67
2017-09-25T10:05:58.824Z,993.66
2017-09-25T10:06:58.834Z,993.64
2017-09-25T10:07:58.825Z,993.65
2017-09-25T10:08:58.828Z,993.64
2017-09-25T10:09:58.830Z,993.66
2017-09-25T10:10:58.832Z,993.62
2017-09-25T10:11:58.832Z,993.67
2017-09-25T10:12:58.834Z,993.65
2017-09-25T10:13:58.840Z,993.62
2017-09-25T10:14:58.837Z,993.64
2017-09-25T10:15:58.838Z,993.62
2017-09-25T10:16:58.848Z,993.65
2017-09-25T10:17:58.842Z,993.66
2017-09-25T10:18:58.843Z,993.69
2017-09-25T10:19:58.846Z,993.68
2017-09-25T10:20:58.848Z,993.67
2017-09-25T10:21:58.850Z,993.71
2017-09-25T10:22:58.851Z,993.73
2017-09-25T10:23:58.853Z,993.71
2017-09-25T10:24:58.856Z,993.72
2017-09-25T10:25:58.856Z,993.74
2017-09-25T10:26:58.858Z,993.74
2017-09-25T10:27:58.863Z,993.74
2017-09-25T10:28:58.863Z,993.75
2017-09-25T10:29:58.864Z,993.73
2017-09-25T10:30:58.867Z,993.69
2017-09-25T10:31:58.876Z,993.7
2017-09-25T10:32:58.881Z,993.69
2017-09-25T10:33:58.871Z,993.74
2017-09-25T10:34:58.885Z,993.68
2017-09-25T10:35:58.882Z,993.67
2017-09-25T10:36:58.886Z,993.65
2017-09-25T10:37:58.884Z,993.62
2017-09-25T10:38:58.887Z,993.65
2017-09-25T10:39:58.886Z,993.65
2017-09-25T10:40:58.886Z,993.63
2017-09-25T10:41:58.896Z,993.6
2017-09-25T10:42:58.890Z,993.61
2017-09-25T10:43:58.892Z,993.58
2017-09-25T10:44:58.895Z,993.55
2017-09-25T10:45:58.896Z,993.54
2017-09-25T10:46:58.901Z,993.55
2017-09-25T10:47:58.900Z,993.55
2017-09-25T10:48:58.902Z,993.53
2017-09-25T10:49:58.905Z,993.5
2017-09-25T10:50:58.907Z,993.53
2017-09-25T10:51:58.910Z,993.51
2017-09-25T10:52:58.911Z,993.51
2017-09-25T10:53:58.913Z,993.5
2017-09-25T10:54:58.916Z,993.46
2017-09-25T10:55:58.918Z,993.48
2017-09-25T10:56:58.920Z,993.47
2017-09-25T10:57:58.923Z,993.47
2017-09-25T10:58:58.924Z,993.45
2017-09-25T10:59:58.929Z,993.42
2017-09-25T11:00:58.929Z,993.4
2017-09-25T11:01:58.932Z,993.34
2017-09-25T11:02:58.933Z,993.34
2017-09-25T11:03:58.937Z,993.38
2017-09-25T11:04:58.938Z,993.33
2017-09-25T11:05:58.942Z,993.31
2017-09-25T11:06:58.941Z,993.34
2017-09-25T11:07:58.945Z,993.3
2017-09-25T11:08:58.947Z,993.31
2017-09-25T11:09:58.950Z,993.31
2017-09-25T11:10:58.951Z,993.31
2017-09-25T11:11:58.954Z,993.26
2017-09-25T11:12:58.963Z,993.3
2017-09-25T11:13:58.963Z,993.26
2017-09-25T11:14:58.962Z,993.28
2017-09-25T11:15:58.963Z,993.24
2017-09-25T11:16:58.967Z,993.24
2017-09-25T11:17:58.968Z,993.24
2017-09-25T11:18:58.971Z,993.25
2017-09-25T11:19:58.973Z,993.21
2017-09-25T11:20:58.979Z,993.24
2017-09-25T11:21:58.979Z,993.2
2017-09-25T11:22:58.980Z,993.21
2017-09-25T11:23:58.984Z,993.23
2017-09-25T11:24:58.984Z,993.2
2017-09-25T11:25:58.988Z,993.2
2017-09-25T11:26:58.990Z,993.23
2017-09-25T11:27:58.993Z,993.22
2017-09-25T11:28:58.995Z,993.22
2017-09-25T11:29:58.997Z,993.18
2017-09-25T11:30:59.002Z,993.19
2017-09-25T11:31:59.003Z,993.19
2017-09-25T11:32:59.005Z,993.18
2017-09-25T11:33:59.008Z,993.16
2017-09-25T11:34:59.011Z,993.15
2017-09-25T11:35:59.015Z,993.11
2017-09-25T11:37:00.872Z,993.13
2017-09-25T11:37:59.018Z,993.13
2017-09-25T11:38:59.021Z,993.11
2017-09-25T11:39:59.026Z,993.08
2017-09-25T11:40:59.028Z,993.12
2017-09-25T11:41:59.036Z,993.14
2017-09-25T11:42:59.029Z,993.1
2017-09-25T11:43:59.039Z,993.06
2017-09-25T11:44:59.037Z,993.08
2017-09-25T11:45:59.040Z,993.09
2017-09-25T11:46:59.043Z,993.08
2017-09-25T11:47:59.044Z,993.08
2017-09-25T11:48:59.046Z,993.11
2017-09-25T11:49:59.052Z,993.07
2017-09-25T11:50:59.074Z,993.11
2017-09-25T11:51:59.055Z,993.08
2017-09-25T11:52:59.058Z,993.02
2017-09-25T11:53:59.066Z,993
2017-09-25T11:54:59.064Z,993
2017-09-25T11:55:59.068Z,992.99
2017-09-25T11:56:59.073Z,992.93
2017-09-25T11:57:59.073Z,992.97
2017-09-25T11:58:59.076Z,992.95
2017-09-25T11:59:59.079Z,992.96
2017-09-25T12:00:59.081Z,992.96
2017-09-25T12:01:59.085Z,992.92
2017-09-25T12:02:59.089Z,992.93
2017-09-25T12:03:59.106Z,992.95
2017-09-25T12:04:59.110Z,992.93
2017-09-25T12:05:59.109Z,992.95
2017-09-25T12:06:59.112Z,992.94
2017-09-25T12:07:59.113Z,992.89
2017-09-25T12:08:59.109Z,992.9
2017-09-25T12:09:59.115Z,992.88
2017-09-25T12:10:59.132Z,992.88
2017-09-25T12:11:59.130Z,992.82
2017-09-25T12:12:59.126Z,992.84
2017-09-25T12:13:59.130Z,992.87
2017-09-25T12:14:59.129Z,992.79
2017-09-25T12:15:59.137Z,992.8
2017-09-25T12:16:59.137Z,992.82
2017-09-25T12:17:59.141Z,992.81
2017-09-25T12:18:59.142Z,992.82
2017-09-25T12:19:59.150Z,992.77
2017-09-25T12:20:59.151Z,992.8
2017-09-25T12:21:59.152Z,992.8
2017-09-25T12:22:59.960Z,992.79
2017-09-25T12:23:59.159Z,992.81
2017-09-25T12:24:59.173Z,992.8
2017-09-25T12:25:59.174Z,992.84
2017-09-25T12:26:59.185Z,992.83
2017-09-25T12:27:59.179Z,992.85
2017-09-25T12:28:59.181Z,992.86
2017-09-25T12:29:59.182Z,992.78
2017-09-25T12:30:59.186Z,992.77